sensor_id;sensor_type;location;lat;lon;timestamp;P1;durP1;ratioP1;P2;durP2;ratioP2
13218;SDS011;6674;49.152;11.918;2023-11-21T00:00:00;1.60;;;0.57;;
13218;SDS011;6674;49.152;11.918;2023-11-21T00:02:28;1.73;;;0.57;;
13218;SDS011;6674;49.152;11.918;2023-11-21T00:04:54;0.70;;;0.50;;
13218;SDS011;6674;49.152;11.918;2023-11-21T00:07:21;0.67;;;0.67;;
13218;SDS011;6674;49.152;11.918;2023-11-21T00:09:47;2.23;;;1.17;;
13218;SDS011;6674;49.152;11.918;2023-11-21T00:12:15;1.30;;;0.50;;
13218;SDS011;6674;49.152;11.918;2023-11-21T00:14:41;2.13;;;0.70;;
13218;SDS011;6674;49.152;11.918;2023-11-21T00:17:08;0.97;;;0.60;;
13218;SDS011;6674;49.152;11.918;2023-11-21T00:19:36;0.67;;;0.53;;
13218;SDS011;6674;49.152;11.918;2023-11-21T00:22:02;1.33;;;0.67;;
13218;SDS011;6674;49.152;11.918;2023-11-21T00:24:29;2.23;;;1.00;;
13218;SDS011;6674;49.152;11.918;2023-11-21T00:26:55;1.17;;;0.60;;
13218;SDS011;6674;49.152;11.918;2023-11-21T00:29:22;0.90;;;0.60;;
13218;SDS011;6674;49.152;11.918;2023-11-21T00:31:48;0.90;;;0.77;;
13218;SDS011;6674;49.152;11.918;2023-11-21T00:34:15;1.20;;;0.80;;
13218;SDS011;6674;49.152;11.918;2023-11-21T00:36:43;1.37;;;0.80;;
13218;SDS011;6674;49.152;11.918;2023-11-21T00:39:09;2.00;;;0.63;;
13218;SDS011;6674;49.152;11.918;2023-11-21T00:41:37;1.50;;;0.60;;
13218;SDS011;6674;49.152;11.918;2023-11-21T00:44:03;2.57;;;0.90;;
13218;SDS011;6674;49.152;11.918;2023-11-21T00:46:31;0.57;;;0.47;;
13218;SDS011;6674;49.152;11.918;2023-11-21T00:48:58;0.80;;;0.70;;
13218;SDS011;6674;49.152;11.918;2023-11-21T00:51:24;1.83;;;1.00;;
13218;SDS011;6674;49.152;11.918;2023-11-21T00:53:52;3.20;;;0.93;;
13218;SDS011;6674;49.152;11.918;2023-11-21T00:56:18;1.30;;;0.80;;
13218;SDS011;6674;49.152;11.918;2023-11-21T00:58:45;2.87;;;0.77;;
13218;SDS011;6674;49.152;11.918;2023-11-21T01:01:15;1.57;;;0.57;;
13218;SDS011;6674;49.152;11.918;2023-11-21T01:03:41;1.90;;;1.03;;
13218;SDS011;6674;49.152;11.918;2023-11-21T01:06:08;1.40;;;0.70;;
13218;SDS011;6674;49.152;11.918;2023-11-21T01:08:35;1.37;;;0.90;;
13218;SDS011;6674;49.152;11.918;2023-11-21T01:11:04;2.23;;;1.10;;
13218;SDS011;6674;49.152;11.918;2023-11-21T01:13:32;1.70;;;0.83;;
13218;SDS011;6674;49.152;11.918;2023-11-21T01:16:00;1.07;;;0.87;;
13218;SDS011;6674;49.152;11.918;2023-11-21T01:18:27;1.50;;;0.60;;
13218;SDS011;6674;49.152;11.918;2023-11-21T01:20:54;1.20;;;0.90;;
13218;SDS011;6674;49.152;11.918;2023-11-21T01:23:20;1.83;;;0.80;;
13218;SDS011;6674;49.152;11.918;2023-11-21T01:25:47;1.20;;;0.73;;
13218;SDS011;6674;49.152;11.918;2023-11-21T01:28:15;3.10;;;1.00;;
13218;SDS011;6674;49.152;11.918;2023-11-21T01:30:41;2.03;;;1.00;;
13218;SDS011;6674;49.152;11.918;2023-11-21T01:33:07;1.87;;;0.90;;
13218;SDS011;6674;49.152;11.918;2023-11-21T01:35:34;1.47;;;1.00;;
13218;SDS011;6674;49.152;11.918;2023-11-21T01:38:00;2.47;;;1.07;;
13218;SDS011;6674;49.152;11.918;2023-11-21T01:40:26;2.10;;;1.10;;
13218;SDS011;6674;49.152;11.918;2023-11-21T01:42:53;1.73;;;1.53;;
13218;SDS011;6674;49.152;11.918;2023-11-21T01:45:22;1.90;;;1.30;;
13218;SDS011;6674;49.152;11.918;2023-11-21T01:47:50;2.90;;;1.97;;
13218;SDS011;6674;49.152;11.918;2023-11-21T01:50:16;3.13;;;1.70;;
13218;SDS011;6674;49.152;11.918;2023-11-21T01:52:43;2.93;;;1.27;;
13218;SDS011;6674;49.152;11.918;2023-11-21T01:55:10;3.47;;;1.70;;
13218;SDS011;6674;49.152;11.918;2023-11-21T01:57:37;2.83;;;1.77;;
13218;SDS011;6674;49.152;11.918;2023-11-21T02:00:05;2.37;;;1.80;;
13218;SDS011;6674;49.152;11.918;2023-11-21T02:02:42;1.73;;;1.63;;
13218;SDS011;6674;49.152;11.918;2023-11-21T02:05:09;3.83;;;1.60;;
13218;SDS011;6674;49.152;11.918;2023-11-21T02:07:37;2.73;;;1.60;;
13218;SDS011;6674;49.152;11.918;2023-11-21T02:10:04;3.23;;;1.70;;
13218;SDS011;6674;49.152;11.918;2023-11-21T02:12:31;2.87;;;2.10;;
13218;SDS011;6674;49.152;11.918;2023-11-21T02:14:57;2.40;;;2.13;;
13218;SDS011;6674;49.152;11.918;2023-11-21T02:17:23;3.47;;;1.80;;
13218;SDS011;6674;49.152;11.918;2023-11-21T02:19:53;3.23;;;1.67;;
13218;SDS011;6674;49.152;11.918;2023-11-21T02:22:21;3.07;;;2.07;;
13218;SDS011;6674;49.152;11.918;2023-11-21T02:24:52;4.27;;;2.20;;
13218;SDS011;6674;49.152;11.918;2023-11-21T02:27:19;3.20;;;2.30;;
13218;SDS011;6674;49.152;11.918;2023-11-21T02:29:48;3.13;;;2.70;;
13218;SDS011;6674;49.152;11.918;2023-11-21T02:32:15;2.73;;;2.33;;
13218;SDS011;6674;49.152;11.918;2023-11-21T02:34:44;4.77;;;2.20;;
13218;SDS011;6674;49.152;11.918;2023-11-21T02:37:10;4.00;;;2.30;;
13218;SDS011;6674;49.152;11.918;2023-11-21T02:39:37;3.00;;;2.03;;
13218;SDS011;6674;49.152;11.918;2023-11-21T02:42:05;3.30;;;2.00;;
13218;SDS011;6674;49.152;11.918;2023-11-21T02:44:31;2.27;;;2.00;;
13218;SDS011;6674;49.152;11.918;2023-11-21T02:46:58;3.07;;;1.80;;
13218;SDS011;6674;49.152;11.918;2023-11-21T02:49:25;3.40;;;1.83;;
13218;SDS011;6674;49.152;11.918;2023-11-21T02:51:55;3.47;;;1.60;;
13218;SDS011;6674;49.152;11.918;2023-11-21T02:54:22;2.50;;;1.57;;
13218;SDS011;6674;49.152;11.918;2023-11-21T02:56:48;3.70;;;1.93;;
13218;SDS011;6674;49.152;11.918;2023-11-21T02:59:16;2.33;;;1.90;;
13218;SDS011;6674;49.152;11.918;2023-11-21T03:01:44;3.23;;;1.53;;
13218;SDS011;6674;49.152;11.918;2023-11-21T03:04:10;2.77;;;1.33;;
13218;SDS011;6674;49.152;11.918;2023-11-21T03:06:44;2.30;;;1.57;;
13218;SDS011;6674;49.152;11.918;2023-11-21T03:09:11;3.53;;;1.57;;
13218;SDS011;6674;49.152;11.918;2023-11-21T03:11:38;1.83;;;1.40;;
13218;SDS011;6674;49.152;11.918;2023-11-21T03:14:04;2.10;;;1.50;;
13218;SDS011;6674;49.152;11.918;2023-11-21T03:16:33;1.40;;;1.23;;
13218;SDS011;6674;49.152;11.918;2023-11-21T03:19:00;2.07;;;1.10;;
13218;SDS011;6674;49.152;11.918;2023-11-21T03:21:27;1.90;;;1.20;;
13218;SDS011;6674;49.152;11.918;2023-11-21T03:23:54;3.27;;;1.50;;
13218;SDS011;6674;49.152;11.918;2023-11-21T03:26:20;2.40;;;1.30;;
13218;SDS011;6674;49.152;11.918;2023-11-21T03:28:47;1.67;;;0.97;;
13218;SDS011;6674;49.152;11.918;2023-11-21T03:31:14;0.80;;;0.80;;
13218;SDS011;6674;49.152;11.918;2023-11-21T03:33:43;1.47;;;0.90;;
13218;SDS011;6674;49.152;11.918;2023-11-21T03:36:10;1.33;;;0.80;;
13218;SDS011;6674;49.152;11.918;2023-11-21T03:38:37;1.80;;;1.00;;
13218;SDS011;6674;49.152;11.918;2023-11-21T03:41:04;2.80;;;1.10;;
13218;SDS011;6674;49.152;11.918;2023-11-21T03:43:31;1.90;;;1.10;;
13218;SDS011;6674;49.152;11.918;2023-11-21T03:45:57;0.90;;;0.60;;
13218;SDS011;6674;49.152;11.918;2023-11-21T03:48:24;2.20;;;0.87;;
13218;SDS011;6674;49.152;11.918;2023-11-21T03:50:51;1.27;;;0.90;;
13218;SDS011;6674;49.152;11.918;2023-11-21T03:53:18;1.27;;;0.83;;
13218;SDS011;6674;49.152;11.918;2023-11-21T03:55:44;1.10;;;1.00;;
13218;SDS011;6674;49.152;11.918;2023-11-21T03:58:11;0.77;;;0.67;;
13218;SDS011;6674;49.152;11.918;2023-11-21T04:00:37;1.57;;;0.93;;
13218;SDS011;6674;49.152;11.918;2023-11-21T04:03:04;1.90;;;0.87;;
13218;SDS011;6674;49.152;11.918;2023-11-21T04:05:30;1.37;;;1.13;;
13218;SDS011;6674;49.152;11.918;2023-11-21T04:07:58;1.20;;;1.10;;
13218;SDS011;6674;49.152;11.918;2023-11-21T04:10:27;1.00;;;0.93;;
13218;SDS011;6674;49.152;11.918;2023-11-21T04:12:53;0.50;;;0.50;;
13218;SDS011;6674;49.152;11.918;2023-11-21T04:15:20;0.90;;;0.87;;
13218;SDS011;6674;49.152;11.918;2023-11-21T04:17:46;1.17;;;0.60;;
13218;SDS011;6674;49.152;11.918;2023-11-21T04:20:13;0.80;;;0.60;;
13218;SDS011;6674;49.152;11.918;2023-11-21T04:22:40;0.70;;;0.70;;
13218;SDS011;6674;49.152;11.918;2023-11-21T04:25:10;1.20;;;0.97;;
13218;SDS011;6674;49.152;11.918;2023-11-21T04:27:38;2.20;;;1.30;;
13218;SDS011;6674;49.152;11.918;2023-11-21T04:30:05;1.73;;;1.10;;
13218;SDS011;6674;49.152;11.918;2023-11-21T04:32:32;0.93;;;0.83;;
13218;SDS011;6674;49.152;11.918;2023-11-21T04:34:58;1.80;;;1.13;;
13218;SDS011;6674;49.152;11.918;2023-11-21T04:37:25;1.87;;;1.00;;
13218;SDS011;6674;49.152;11.918;2023-11-21T04:39:51;1.50;;;0.90;;
13218;SDS011;6674;49.152;11.918;2023-11-21T04:42:19;0.90;;;0.90;;
13218;SDS011;6674;49.152;11.918;2023-11-21T04:44:45;2.50;;;1.03;;
13218;SDS011;6674;49.152;11.918;2023-11-21T04:47:12;1.43;;;1.10;;
13218;SDS011;6674;49.152;11.918;2023-11-21T04:49:41;1.30;;;1.20;;
13218;SDS011;6674;49.152;11.918;2023-11-21T04:52:08;1.20;;;1.10;;
13218;SDS011;6674;49.152;11.918;2023-11-21T04:54:35;2.33;;;1.40;;
13218;SDS011;6674;49.152;11.918;2023-11-21T04:57:02;2.87;;;1.37;;
13218;SDS011;6674;49.152;11.918;2023-11-21T04:59:31;1.43;;;1.30;;
13218;SDS011;6674;49.152;11.918;2023-11-21T05:01:58;2.30;;;1.60;;
13218;SDS011;6674;49.152;11.918;2023-11-21T05:04:25;2.97;;;1.90;;
13218;SDS011;6674;49.152;11.918;2023-11-21T05:06:52;3.23;;;1.47;;
13218;SDS011;6674;49.152;11.918;2023-11-21T05:09:18;2.53;;;1.47;;
13218;SDS011;6674;49.152;11.918;2023-11-21T05:11:46;3.23;;;1.80;;
13218;SDS011;6674;49.152;11.918;2023-11-21T05:14:12;1.60;;;1.47;;
13218;SDS011;6674;49.152;11.918;2023-11-21T05:16:40;2.43;;;1.00;;
13218;SDS011;6674;49.152;11.918;2023-11-21T05:19:07;2.03;;;1.00;;
13218;SDS011;6674;49.152;11.918;2023-11-21T05:21:34;1.67;;;0.90;;
13218;SDS011;6674;49.152;11.918;2023-11-21T05:24:01;1.80;;;1.00;;
13218;SDS011;6674;49.152;11.918;2023-11-21T05:26:27;2.03;;;0.97;;
13218;SDS011;6674;49.152;11.918;2023-11-21T05:28:54;1.63;;;0.83;;
13218;SDS011;6674;49.152;11.918;2023-11-21T05:31:20;1.50;;;1.40;;
13218;SDS011;6674;49.152;11.918;2023-11-21T05:33:48;1.83;;;1.07;;
13218;SDS011;6674;49.152;11.918;2023-11-21T05:36:15;1.40;;;0.93;;
13218;SDS011;6674;49.152;11.918;2023-11-21T05:38:42;1.43;;;0.97;;
13218;SDS011;6674;49.152;11.918;2023-11-21T05:41:09;2.27;;;1.30;;
13218;SDS011;6674;49.152;11.918;2023-11-21T05:43:38;2.53;;;1.70;;
13218;SDS011;6674;49.152;11.918;2023-11-21T05:46:05;1.83;;;1.47;;
13218;SDS011;6674;49.152;11.918;2023-11-21T05:48:32;3.47;;;1.80;;
13218;SDS011;6674;49.152;11.918;2023-11-21T05:51:00;2.67;;;1.70;;
13218;SDS011;6674;49.152;11.918;2023-11-21T05:53:27;4.30;;;1.80;;
13218;SDS011;6674;49.152;11.918;2023-11-21T05:55:54;2.20;;;1.40;;
13218;SDS011;6674;49.152;11.918;2023-11-21T05:58:20;3.10;;;2.10;;
13218;SDS011;6674;49.152;11.918;2023-11-21T06:00:47;4.47;;;2.40;;
13218;SDS011;6674;49.152;11.918;2023-11-21T06:03:13;3.47;;;1.90;;
13218;SDS011;6674;49.152;11.918;2023-11-21T06:05:40;3.70;;;2.40;;
13218;SDS011;6674;49.152;11.918;2023-11-21T06:08:08;2.50;;;2.30;;
13218;SDS011;6674;49.152;11.918;2023-11-21T06:10:35;2.83;;;2.20;;
13218;SDS011;6674;49.152;11.918;2023-11-21T06:13:02;3.00;;;2.47;;
13218;SDS011;6674;49.152;11.918;2023-11-21T06:15:29;3.33;;;2.20;;
13218;SDS011;6674;49.152;11.918;2023-11-21T06:17:55;2.63;;;2.30;;
13218;SDS011;6674;49.152;11.918;2023-11-21T06:20:22;3.70;;;3.30;;
13218;SDS011;6674;49.152;11.918;2023-11-21T06:22:49;5.80;;;3.37;;
13218;SDS011;6674;49.152;11.918;2023-11-21T06:25:17;3.53;;;2.30;;
13218;SDS011;6674;49.152;11.918;2023-11-21T06:27:45;2.87;;;2.43;;
13218;SDS011;6674;49.152;11.918;2023-11-21T06:30:12;3.00;;;2.50;;
13218;SDS011;6674;49.152;11.918;2023-11-21T06:32:40;3.33;;;2.97;;
13218;SDS011;6674;49.152;11.918;2023-11-21T06:35:10;4.63;;;3.27;;
13218;SDS011;6674;49.152;11.918;2023-11-21T06:37:38;3.13;;;2.83;;
13218;SDS011;6674;49.152;11.918;2023-11-21T06:40:05;3.90;;;3.50;;
13218;SDS011;6674;49.152;11.918;2023-11-21T06:42:33;4.53;;;3.87;;
13218;SDS011;6674;49.152;11.918;2023-11-21T06:44:59;4.10;;;3.70;;
13218;SDS011;6674;49.152;11.918;2023-11-21T06:47:31;4.17;;;2.93;;
13218;SDS011;6674;49.152;11.918;2023-11-21T06:49:58;5.47;;;3.73;;
13218;SDS011;6674;49.152;11.918;2023-11-21T06:52:25;5.33;;;3.53;;
13218;SDS011;6674;49.152;11.918;2023-11-21T06:54:52;4.03;;;3.63;;
13218;SDS011;6674;49.152;11.918;2023-11-21T06:57:19;5.37;;;4.50;;
13218;SDS011;6674;49.152;11.918;2023-11-21T06:59:47;4.60;;;4.03;;
13218;SDS011;6674;49.152;11.918;2023-11-21T07:02:15;5.90;;;4.33;;
13218;SDS011;6674;49.152;11.918;2023-11-21T07:04:43;4.50;;;3.50;;
13218;SDS011;6674;49.152;11.918;2023-11-21T07:07:10;3.87;;;3.17;;
13218;SDS011;6674;49.152;11.918;2023-11-21T07:09:37;5.33;;;3.77;;
13218;SDS011;6674;49.152;11.918;2023-11-21T07:12:04;4.80;;;4.33;;
13218;SDS011;6674;49.152;11.918;2023-11-21T07:14:32;4.23;;;3.57;;
13218;SDS011;6674;49.152;11.918;2023-11-21T07:17:00;4.30;;;3.20;;
13218;SDS011;6674;49.152;11.918;2023-11-21T07:19:27;4.27;;;3.63;;
13218;SDS011;6674;49.152;11.918;2023-11-21T07:21:55;5.87;;;4.00;;
13218;SDS011;6674;49.152;11.918;2023-11-21T07:24:21;4.53;;;3.77;;
13218;SDS011;6674;49.152;11.918;2023-11-21T07:26:48;4.13;;;3.70;;
13218;SDS011;6674;49.152;11.918;2023-11-21T07:29:15;5.47;;;4.17;;
13218;SDS011;6674;49.152;11.918;2023-11-21T07:31:41;4.53;;;3.63;;
13218;SDS011;6674;49.152;11.918;2023-11-21T07:34:09;4.37;;;3.93;;
13218;SDS011;6674;49.152;11.918;2023-11-21T07:36:37;3.50;;;3.20;;
13218;SDS011;6674;49.152;11.918;2023-11-21T07:39:03;4.00;;;3.27;;
13218;SDS011;6674;49.152;11.918;2023-11-21T07:41:32;4.33;;;3.23;;
13218;SDS011;6674;49.152;11.918;2023-11-21T07:43:59;3.43;;;3.13;;
13218;SDS011;6674;49.152;11.918;2023-11-21T07:46:27;4.13;;;3.00;;
13218;SDS011;6674;49.152;11.918;2023-11-21T07:48:53;3.17;;;2.87;;
13218;SDS011;6674;49.152;11.918;2023-11-21T07:51:21;3.60;;;3.23;;
13218;SDS011;6674;49.152;11.918;2023-11-21T07:53:48;4.93;;;3.67;;
13218;SDS011;6674;49.152;11.918;2023-11-21T07:56:16;5.07;;;3.90;;
13218;SDS011;6674;49.152;11.918;2023-11-21T07:58:44;5.00;;;3.87;;
13218;SDS011;6674;49.152;11.918;2023-11-21T08:01:10;5.20;;;3.80;;
13218;SDS011;6674;49.152;11.918;2023-11-21T08:03:38;3.87;;;3.47;;
13218;SDS011;6674;49.152;11.918;2023-11-21T08:06:05;4.57;;;3.27;;
13218;SDS011;6674;49.152;11.918;2023-11-21T08:08:34;4.47;;;3.10;;
13218;SDS011;6674;49.152;11.918;2023-11-21T08:11:00;3.73;;;3.43;;
13218;SDS011;6674;49.152;11.918;2023-11-21T08:13:29;3.27;;;2.90;;
13218;SDS011;6674;49.152;11.918;2023-11-21T08:15:55;2.80;;;2.60;;
13218;SDS011;6674;49.152;11.918;2023-11-21T08:18:24;3.43;;;2.73;;
13218;SDS011;6674;49.152;11.918;2023-11-21T08:20:57;2.53;;;2.30;;
13218;SDS011;6674;49.152;11.918;2023-11-21T08:23:23;2.40;;;2.20;;
13218;SDS011;6674;49.152;11.918;2023-11-21T08:25:52;2.67;;;2.47;;
13218;SDS011;6674;49.152;11.918;2023-11-21T08:28:18;2.73;;;2.53;;
13218;SDS011;6674;49.152;11.918;2023-11-21T08:30:47;2.70;;;2.50;;
13218;SDS011;6674;49.152;11.918;2023-11-21T08:33:15;2.87;;;2.53;;
13218;SDS011;6674;49.152;11.918;2023-11-21T08:35:41;2.53;;;2.40;;
13218;SDS011;6674;49.152;11.918;2023-11-21T08:38:08;2.97;;;2.47;;
13218;SDS011;6674;49.152;11.918;2023-11-21T08:40:35;1.90;;;1.80;;
13218;SDS011;6674;49.152;11.918;2023-11-21T08:43:03;2.10;;;2.00;;
13218;SDS011;6674;49.152;11.918;2023-11-21T08:45:30;2.60;;;2.40;;
13218;SDS011;6674;49.152;11.918;2023-11-21T08:47:59;3.53;;;2.57;;
13218;SDS011;6674;49.152;11.918;2023-11-21T08:50:25;2.10;;;1.90;;
13218;SDS011;6674;49.152;11.918;2023-11-21T08:52:52;2.40;;;2.20;;
13218;SDS011;6674;49.152;11.918;2023-11-21T08:55:18;2.50;;;2.30;;
13218;SDS011;6674;49.152;11.918;2023-11-21T08:57:45;2.37;;;2.17;;
13218;SDS011;6674;49.152;11.918;2023-11-21T09:00:15;2.13;;;2.00;;
13218;SDS011;6674;49.152;11.918;2023-11-21T09:02:44;1.80;;;1.70;;
13218;SDS011;6674;49.152;11.918;2023-11-21T09:05:16;2.10;;;2.00;;
13218;SDS011;6674;49.152;11.918;2023-11-21T09:07:45;2.23;;;2.10;;
13218;SDS011;6674;49.152;11.918;2023-11-21T09:10:20;2.50;;;2.30;;
13218;SDS011;6674;49.152;11.918;2023-11-21T09:12:47;2.60;;;2.40;;
13218;SDS011;6674;49.152;11.918;2023-11-21T09:15:14;2.43;;;2.23;;
13218;SDS011;6674;49.152;11.918;2023-11-21T09:17:41;2.07;;;1.97;;
13218;SDS011;6674;49.152;11.918;2023-11-21T09:20:10;2.40;;;2.20;;
13218;SDS011;6674;49.152;11.918;2023-11-21T09:22:36;2.03;;;1.80;;
13218;SDS011;6674;49.152;11.918;2023-11-21T09:25:03;2.20;;;2.00;;
13218;SDS011;6674;49.152;11.918;2023-11-21T09:27:31;2.10;;;1.90;;
13218;SDS011;6674;49.152;11.918;2023-11-21T09:29:57;3.47;;;2.10;;
13218;SDS011;6674;49.152;11.918;2023-11-21T09:32:26;2.50;;;2.30;;
13218;SDS011;6674;49.152;11.918;2023-11-21T09:34:53;2.37;;;2.17;;
13218;SDS011;6674;49.152;11.918;2023-11-21T09:37:20;2.93;;;2.63;;
13218;SDS011;6674;49.152;11.918;2023-11-21T09:39:47;2.30;;;2.17;;
13218;SDS011;6674;49.152;11.918;2023-11-21T09:42:15;3.13;;;2.93;;
13218;SDS011;6674;49.152;11.918;2023-11-21T09:44:45;2.43;;;2.23;;
13218;SDS011;6674;49.152;11.918;2023-11-21T09:47:14;2.63;;;2.43;;
13218;SDS011;6674;49.152;11.918;2023-11-21T09:49:42;2.50;;;2.30;;
13218;SDS011;6674;49.152;11.918;2023-11-21T09:52:11;2.30;;;2.10;;
13218;SDS011;6674;49.152;11.918;2023-11-21T09:54:44;2.40;;;2.20;;
13218;SDS011;6674;49.152;11.918;2023-11-21T09:57:11;2.33;;;2.13;;
13218;SDS011;6674;49.152;11.918;2023-11-21T09:59:37;2.40;;;2.20;;
13218;SDS011;6674;49.152;11.918;2023-11-21T10:02:04;2.50;;;2.30;;
13218;SDS011;6674;49.152;11.918;2023-11-21T10:04:31;2.70;;;2.50;;
13218;SDS011;6674;49.152;11.918;2023-11-21T10:06:59;2.33;;;2.23;;
13218;SDS011;6674;49.152;11.918;2023-11-21T10:09:27;2.40;;;2.20;;
13218;SDS011;6674;49.152;11.918;2023-11-21T10:11:55;2.33;;;2.13;;
13218;SDS011;6674;49.152;11.918;2023-11-21T10:14:22;2.70;;;2.40;;
13218;SDS011;6674;49.152;11.918;2023-11-21T10:16:51;2.10;;;1.90;;
13218;SDS011;6674;49.152;11.918;2023-11-21T10:19:18;2.17;;;1.97;;
13218;SDS011;6674;49.152;11.918;2023-11-21T10:21:46;1.93;;;1.83;;
13218;SDS011;6674;49.152;11.918;2023-11-21T10:24:13;2.17;;;1.97;;
13218;SDS011;6674;49.152;11.918;2023-11-21T10:26:40;2.20;;;2.00;;
13218;SDS011;6674;49.152;11.918;2023-11-21T10:29:07;2.30;;;2.10;;
13218;SDS011;6674;49.152;11.918;2023-11-21T10:31:34;1.57;;;1.47;;
13218;SDS011;6674;49.152;11.918;2023-11-21T10:34:13;2.07;;;1.90;;
13218;SDS011;6674;49.152;11.918;2023-11-21T10:36:40;2.30;;;2.10;;
13218;SDS011;6674;49.152;11.918;2023-11-21T10:39:07;2.43;;;1.70;;
13218;SDS011;6674;49.152;11.918;2023-11-21T10:41:36;2.13;;;1.93;;
13218;SDS011;6674;49.152;11.918;2023-11-21T10:44:05;1.93;;;1.70;;
13218;SDS011;6674;49.152;11.918;2023-11-21T10:46:32;2.00;;;1.90;;
13218;SDS011;6674;49.152;11.918;2023-11-21T10:49:00;1.50;;;1.37;;
13218;SDS011;6674;49.152;11.918;2023-11-21T10:51:27;1.73;;;1.33;;
13218;SDS011;6674;49.152;11.918;2023-11-21T10:53:54;1.70;;;1.60;;
13218;SDS011;6674;49.152;11.918;2023-11-21T10:56:23;1.67;;;1.57;;
13218;SDS011;6674;49.152;11.918;2023-11-21T10:58:52;2.10;;;1.63;;
13218;SDS011;6674;49.152;11.918;2023-11-21T11:01:19;2.00;;;1.50;;
13218;SDS011;6674;49.152;11.918;2023-11-21T11:03:47;2.50;;;1.90;;
13218;SDS011;6674;49.152;11.918;2023-11-21T11:06:14;2.20;;;1.80;;
13218;SDS011;6674;49.152;11.918;2023-11-21T11:08:41;1.37;;;1.27;;
13218;SDS011;6674;49.152;11.918;2023-11-21T11:11:09;1.77;;;1.67;;
13218;SDS011;6674;49.152;11.918;2023-11-21T11:13:36;2.07;;;1.90;;
13218;SDS011;6674;49.152;11.918;2023-11-21T11:16:05;2.50;;;1.90;;
13218;SDS011;6674;49.152;11.918;2023-11-21T11:18:35;2.50;;;2.30;;
13218;SDS011;6674;49.152;11.918;2023-11-21T11:21:07;1.83;;;1.60;;
13218;SDS011;6674;49.152;11.918;2023-11-21T11:23:39;1.03;;;1.03;;
13218;SDS011;6674;49.152;11.918;2023-11-21T11:26:12;1.90;;;1.57;;
13218;SDS011;6674;49.152;11.918;2023-11-21T11:28:44;1.50;;;1.33;;
13218;SDS011;6674;49.152;11.918;2023-11-21T11:31:13;1.50;;;1.40;;
13218;SDS011;6674;49.152;11.918;2023-11-21T11:33:43;1.70;;;1.60;;
13218;SDS011;6674;49.152;11.918;2023-11-21T11:36:12;1.40;;;1.30;;
13218;SDS011;6674;49.152;11.918;2023-11-21T11:38:44;1.30;;;1.20;;
13218;SDS011;6674;49.152;11.918;2023-11-21T11:41:11;1.90;;;1.50;;
13218;SDS011;6674;49.152;11.918;2023-11-21T11:43:38;1.13;;;1.13;;
13218;SDS011;6674;49.152;11.918;2023-11-21T11:46:09;1.50;;;1.40;;
13218;SDS011;6674;49.152;11.918;2023-11-21T11:48:38;1.07;;;0.97;;
13218;SDS011;6674;49.152;11.918;2023-11-21T11:51:06;0.90;;;0.90;;
13218;SDS011;6674;49.152;11.918;2023-11-21T11:53:38;1.30;;;1.20;;
13218;SDS011;6674;49.152;11.918;2023-11-21T11:59:01;1.30;;;1.30;;
13218;SDS011;6674;49.152;11.918;2023-11-21T12:01:28;1.20;;;1.03;;
13218;SDS011;6674;49.152;11.918;2023-11-21T12:06:43;2.10;;;1.23;;
13218;SDS011;6674;49.152;11.918;2023-11-21T12:09:10;2.37;;;1.90;;
13218;SDS011;6674;49.152;11.918;2023-11-21T12:11:40;1.60;;;1.50;;
13218;SDS011;6674;49.152;11.918;2023-11-21T12:14:08;2.17;;;2.00;;
13218;SDS011;6674;49.152;11.918;2023-11-21T12:16:35;1.90;;;1.60;;
13218;SDS011;6674;49.152;11.918;2023-11-21T12:19:03;1.67;;;1.57;;
13218;SDS011;6674;49.152;11.918;2023-11-21T12:21:30;1.17;;;1.17;;
13218;SDS011;6674;49.152;11.918;2023-11-21T12:23:58;1.60;;;1.50;;
13218;SDS011;6674;49.152;11.918;2023-11-21T12:26:25;1.77;;;1.50;;
13218;SDS011;6674;49.152;11.918;2023-11-21T12:28:52;2.10;;;1.90;;
13218;SDS011;6674;49.152;11.918;2023-11-21T12:31:20;1.90;;;1.57;;
13218;SDS011;6674;49.152;11.918;2023-11-21T12:33:48;2.17;;;1.97;;
13218;SDS011;6674;49.152;11.918;2023-11-21T12:36:15;1.80;;;1.70;;
13218;SDS011;6674;49.152;11.918;2023-11-21T12:38:42;1.57;;;1.47;;
13218;SDS011;6674;49.152;11.918;2023-11-21T12:41:10;1.50;;;1.40;;
13218;SDS011;6674;49.152;11.918;2023-11-21T12:43:37;1.97;;;1.50;;
13218;SDS011;6674;49.152;11.918;2023-11-21T12:46:04;1.80;;;1.57;;
13218;SDS011;6674;49.152;11.918;2023-11-21T12:48:32;1.47;;;1.30;;
13218;SDS011;6674;49.152;11.918;2023-11-21T12:50:58;1.40;;;1.30;;
13218;SDS011;6674;49.152;11.918;2023-11-21T12:53:25;1.40;;;1.30;;
13218;SDS011;6674;49.152;11.918;2023-11-21T12:55:58;1.73;;;1.37;;
13218;SDS011;6674;49.152;11.918;2023-11-21T12:58:27;1.50;;;1.40;;
13218;SDS011;6674;49.152;11.918;2023-11-21T13:00:54;1.83;;;1.40;;
13218;SDS011;6674;49.152;11.918;2023-11-21T13:03:24;1.73;;;1.10;;
13218;SDS011;6674;49.152;11.918;2023-11-21T13:05:52;1.33;;;1.23;;
13218;SDS011;6674;49.152;11.918;2023-11-21T13:08:20;1.07;;;0.97;;
13218;SDS011;6674;49.152;11.918;2023-11-21T13:10:49;1.30;;;1.20;;
13218;SDS011;6674;49.152;11.918;2023-11-21T13:13:15;1.50;;;1.40;;
13218;SDS011;6674;49.152;11.918;2023-11-21T13:15:48;1.53;;;1.43;;
13218;SDS011;6674;49.152;11.918;2023-11-21T13:18:15;1.40;;;1.30;;
13218;SDS011;6674;49.152;11.918;2023-11-21T13:20:43;1.27;;;1.20;;
13218;SDS011;6674;49.152;11.918;2023-11-21T13:23:11;1.70;;;1.47;;
13218;SDS011;6674;49.152;11.918;2023-11-21T13:25:38;1.40;;;1.30;;
13218;SDS011;6674;49.152;11.918;2023-11-21T13:28:06;1.30;;;1.10;;
13218;SDS011;6674;49.152;11.918;2023-11-21T13:30:33;1.63;;;1.43;;
13218;SDS011;6674;49.152;11.918;2023-11-21T13:33:01;1.40;;;1.30;;
13218;SDS011;6674;49.152;11.918;2023-11-21T13:35:30;1.00;;;0.97;;
13218;SDS011;6674;49.152;11.918;2023-11-21T13:38:02;1.70;;;1.40;;
13218;SDS011;6674;49.152;11.918;2023-11-21T13:40:31;1.10;;;1.00;;
13218;SDS011;6674;49.152;11.918;2023-11-21T13:42:59;0.70;;;0.70;;
13218;SDS011;6674;49.152;11.918;2023-11-21T13:45:30;2.27;;;1.40;;
13218;SDS011;6674;49.152;11.918;2023-11-21T13:47:57;1.07;;;0.97;;
13218;SDS011;6674;49.152;11.918;2023-11-21T13:50:26;0.63;;;0.63;;
13218;SDS011;6674;49.152;11.918;2023-11-21T13:52:58;1.10;;;0.90;;
13218;SDS011;6674;49.152;11.918;2023-11-21T13:55:28;1.37;;;1.00;;
13218;SDS011;6674;49.152;11.918;2023-11-21T13:57:58;1.40;;;1.00;;
13218;SDS011;6674;49.152;11.918;2023-11-21T14:00:24;0.80;;;0.63;;
13218;SDS011;6674;49.152;11.918;2023-11-21T14:03:10;1.13;;;1.03;;
13218;SDS011;6674;49.152;11.918;2023-11-21T14:05:46;1.37;;;1.00;;
13218;SDS011;6674;49.152;11.918;2023-11-21T14:08:16;1.23;;;0.70;;
13218;SDS011;6674;49.152;11.918;2023-11-21T14:10:45;1.17;;;1.10;;
13218;SDS011;6674;49.152;11.918;2023-11-21T14:13:15;0.60;;;0.60;;
13218;SDS011;6674;49.152;11.918;2023-11-21T14:15:42;0.93;;;0.70;;
13218;SDS011;6674;49.152;11.918;2023-11-21T14:18:11;0.70;;;0.70;;
13218;SDS011;6674;49.152;11.918;2023-11-21T14:20:42;0.80;;;0.80;;
13218;SDS011;6674;49.152;11.918;2023-11-21T14:23:10;0.80;;;0.80;;
13218;SDS011;6674;49.152;11.918;2023-11-21T14:25:37;0.63;;;0.50;;
13218;SDS011;6674;49.152;11.918;2023-11-21T14:28:05;0.73;;;0.73;;
13218;SDS011;6674;49.152;11.918;2023-11-21T14:30:31;1.17;;;0.63;;
13218;SDS011;6674;49.152;11.918;2023-11-21T14:33:00;0.60;;;0.60;;
13218;SDS011;6674;49.152;11.918;2023-11-21T14:35:27;0.80;;;0.70;;
13218;SDS011;6674;49.152;11.918;2023-11-21T14:37:55;1.23;;;0.57;;
13218;SDS011;6674;49.152;11.918;2023-11-21T14:40:24;0.97;;;0.67;;
13218;SDS011;6674;49.152;11.918;2023-11-21T14:42:52;1.23;;;0.60;;
13218;SDS011;6674;49.152;11.918;2023-11-21T14:45:22;0.77;;;0.53;;
13218;SDS011;6674;49.152;11.918;2023-11-21T14:47:51;0.93;;;0.40;;
13218;SDS011;6674;49.152;11.918;2023-11-21T14:50:24;0.30;;;0.20;;
13218;SDS011;6674;49.152;11.918;2023-11-21T14:53:09;2.00;;;0.87;;
13218;SDS011;6674;49.152;11.918;2023-11-21T14:55:39;0.53;;;0.50;;